Time;durP1;ratioP1;P1;durP2;ratioP2;P2;SDS_P1;SDS_P2;PMS_P1;PMS_P2;Temp;Humidity;BMP_temperature;BMP_pressure;BME280_temperature;BME280_humidity;BME280_pressure;Samples;Min_cycle;Max_cycle;Signal;HPM_P1;HPM_P2
2021/11/29 00:01:15;;;;;;;13.40;9.10;;;;;;;8.20;78.86;96789.89;100960;1327;73433;-25
2021/11/29 00:04:03;;;;;;;10.50;6.80;;;;;;;7.96;79.64;96787.91;101039;1326;77207;-22
2021/11/29 00:06:52;;;;;;;14.40;8.00;;;;;;;7.98;80.36;96779.08;101028;1326;74671;-22
2021/11/29 00:09:20;;;;;;;12.50;8.40;;;;;;;8.30;79.15;96776.23;101013;1330;61116;-22
2021/11/29 00:12:09;;;;;;;14.10;8.60;;;;;;;8.29;78.82;96768.52;101204;1326;61224;-22
2021/11/29 00:14:37;;;;;;;14.10;8.10;;;;;;;8.04;79.22;96771.04;101258;1327;74930;-23
2021/11/29 00:17:26;;;;;;;10.40;7.10;;;;;;;7.88;80.01;96778.05;101275;1326;77648;-23
2021/11/29 00:19:54;;;;;;;12.00;8.00;;;;;;;8.24;79.09;96768.33;101723;1317;74446;-22
2021/11/29 00:22:43;;;;;;;12.20;7.40;;;;;;;8.32;78.55;96760.92;101714;1322;62302;-23
2021/11/29 00:25:12;;;;;;;12.30;8.50;;;;;;;8.13;78.76;96758.66;101715;1322;61103;-22
2021/11/29 00:28:00;;;;;;;11.40;6.40;;;;;;;7.88;79.73;96752.63;101404;1319;75833;-22
2021/11/29 00:30:29;;;;;;;15.20;7.80;;;;;;;8.21;79.29;96745.29;101676;1317;76015;-22
2021/11/29 00:33:17;;;;;;;11.30;7.20;;;;;;;8.47;78.02;96732.11;101677;1323;74782;-22
2021/11/29 00:35:55;;;;;;;10.90;7.60;;;;;;;8.31;78.41;96720.80;101564;1320;61110;-22
2021/11/29 00:38:24;;;;;;;11.60;8.00;;;;;;;8.06;79.01;96707.08;101746;1323;61201;-22
2021/11/29 00:40:53;;;;;;;10.40;7.30;;;;;;;7.92;79.76;96704.72;101766;1317;74802;-22
2021/11/29 00:43:21;;;;;;;12.40;7.40;;;;;;;8.29;78.81;96701.16;101730;1317;75938;-22
2021/11/29 00:45:50;;;;;;;14.30;8.00;;;;;;;8.38;78.09;96702.19;101681;1320;74511;-23
2021/11/29 00:48:18;;;;;;;8.80;6.20;;;;;;;8.16;78.48;96695.41;101682;1317;61709;-22
2021/11/29 00:50:47;;;;;;;8.30;5.60;;;;;;;7.94;79.31;96701.40;101755;1317;61095;-22
2021/11/29 00:53:15;;;;;;;13.80;7.50;;;;;;;7.91;79.91;96705.03;101743;1317;74834;-22
2021/11/29 00:55:44;;;;;;;12.20;7.60;;;;;;;8.27;78.66;96712.52;101677;1319;75090;-22
2021/11/29 00:58:13;;;;;;;9.90;7.30;;;;;;;8.33;78.21;96708.67;101701;1317;74575;-23
2021/11/29 01:00:41;;;;;;;11.80;7.90;;;;;;;8.10;78.64;96692.45;101719;1320;61159;-23
2021/11/29 01:03:10;;;;;;;11.80;6.60;;;;;;;7.86;79.63;96698.64;101757;1320;61183;-22
2021/11/29 01:05:39;;;;;;;10.40;5.50;;;;;;;8.09;79.23;96697.92;101611;1319;74850;-23
2021/11/29 01:08:07;;;;;;;13.50;8.10;;;;;;;8.30;78.38;96700.11;101635;1317;75256;-22
2021/11/29 01:10:37;;;;;;;13.80;8.40;;;;;;;8.20;78.38;96701.10;101667;1317;74389;-23
2021/11/29 01:13:05;;;;;;;12.00;8.40;;;;;;;7.95;79.06;96693.52;101617;1317;61145;-23
2021/11/29 01:15:36;;;;;;;11.60;7.40;;;;;;;7.83;79.90;96690.64;101700;1316;61380;-22
2021/11/29 01:18:09;;;;;;;14.70;7.20;;;;;;;8.17;78.97;96683.87;101660;1323;73440;-22
2021/11/29 01:20:49;;;;;;;10.70;6.60;;;;;;;8.22;78.52;96667.12;101755;1316;76098;-22
2021/11/29 01:23:19;;;;;;;11.20;7.10;;;;;;;8.01;79.22;96656.64;101791;1320;73537;-23
2021/11/29 01:25:48;;;;;;;11.90;8.20;;;;;;;7.83;79.91;96656.48;101753;1320;62492;-23
2021/11/29 01:28:17;;;;;;;10.00;6.00;;;;;;;8.08;79.25;96644.46;101793;1320;61863;-23
2021/11/29 01:30:45;;;;;;;9.90;6.70;;;;;;;8.25;78.51;96647.96;101771;1320;73640;-22
2021/11/29 01:33:18;;;;;;;15.40;8.00;;;;;;;8.14;78.67;96640.16;101797;1316;76050;-22
2021/11/29 01:35:47;;;;;;;9.60;6.50;;;;;;;7.89;79.62;96640.58;101860;1317;73177;-22
2021/11/29 01:38:15;;;;;;;13.70;7.50;;;;;;;7.92;79.77;96646.83;101796;1320;61188;-22
2021/11/29 01:40:44;;;;;;;20.50;7.10;;;;;;;8.12;79.04;96637.66;101707;1317;61224;-23
2021/11/29 01:43:13;;;;;;;10.40;5.80;;;;;;;8.09;78.90;96635.35;101644;1322;74852;-22
2021/11/29 01:45:46;;;;;;;10.90;6.60;;;;;;;7.87;79.61;96627.57;101554;1320;75208;-22
2021/11/29 01:48:15;;;;;;;14.00;8.40;;;;;;;7.99;79.68;96623.83;101584;1324;73470;-23
2021/11/29 01:50:46;;;;;;;12.90;8.20;;;;;;;8.33;78.36;96621.71;101764;1316;61904;-24
2021/11/29 01:53:15;;;;;;;13.50;8.10;;;;;;;8.32;78.11;96620.38;101549;1324;61234;-23
2021/11/29 01:55:44;;;;;;;9.60;5.90;;;;;;;8.14;78.61;96613.52;101809;1317;74833;-23
2021/11/29 01:58:12;;;;;;;11.10;7.80;;;;;;;7.88;79.81;96608.75;101861;1317;75304;-23
2021/11/29 02:00:45;;;;;;;12.70;6.70;;;;;;;8.13;79.36;96606.64;101757;1320;72949;-24
2021/11/29 02:03:14;;;;;;;12.90;8.30;;;;;;;8.34;78.51;96595.97;101740;1323;61233;-24
2021/11/29 02:05:42;;;;;;;11.50;7.30;;;;;;;8.25;78.52;96592.92;101831;1322;62432;-24
2021/11/29 02:08:11;;;;;;;11.40;7.10;;;;;;;8.02;79.26;96588.45;101827;1317;74841;-24
2021/11/29 02:10:40;;;;;;;11.90;6.10;;;;;;;7.97;79.91;96589.85;101810;1317;76042;-23
2021/11/29 02:13:09;;;;;;;12.30;7.80;;;;;;;8.35;78.74;96592.82;101807;1317;73595;-24
2021/11/29 02:15:38;;;;;;;13.80;8.70;;;;;;;8.37;78.31;96586.95;101771;1324;61142;-24
2021/11/29 02:18:06;;;;;;;13.90;9.70;;;;;;;8.16;78.97;96587.55;101824;1322;61148;-23
2021/11/29 02:20:35;;;;;;;14.80;9.10;;;;;;;7.95;79.54;96585.56;102117;1314;73642;-23
2021/11/29 02:23:04;;;;;;;8.10;6.30;;;;;;;8.01;79.99;96587.70;102071;1314;75364;-23
2021/11/29 02:25:32;;;;;;;11.90;7.90;;;;;;;8.38;78.60;96589.28;102078;1319;74998;-24
2021/11/29 02:28:01;;;;;;;13.60;7.70;;;;;;;8.38;78.34;96575.88;102079;1313;62133;-23
2021/11/29 02:30:29;;;;;;;11.50;7.00;;;;;;;8.17;79.00;96563.48;102084;1317;61202;-23
2021/11/29 02:32:57;;;;;;;11.00;6.60;;;;;;;8.00;79.95;96563.02;102062;1320;74866;-23
2021/11/29 02:35:26;;;;;;;8.80;6.40;;;;;;;8.30;79.14;96567.85;102185;1314;76101;-24
2021/11/29 02:37:55;;;;;;;8.70;6.00;;;;;;;8.36;78.74;96569.21;102320;1313;72957;-24
2021/11/29 02:40:23;;;;;;;13.70;7.10;;;;;;;8.21;79.10;96563.41;102224;1314;61515;-24
2021/11/29 02:42:52;;;;;;;15.60;10.00;;;;;;;7.99;80.01;96548.51;102239;1313;61152;-23
2021/11/29 02:45:20;;;;;;;17.60;11.20;;;;;;;8.29;79.45;96542.61;102249;1317;73543;-24
2021/11/29 02:47:49;;;;;;;16.80;11.00;;;;;;;8.48;78.47;96540.64;102273;1314;75889;-23
2021/11/29 02:50:17;;;;;;;10.70;7.20;;;;;;;8.39;78.65;96533.89;102286;1313;74314;-23
2021/11/29 02:52:46;;;;;;;16.10;8.80;;;;;;;8.16;79.40;96533.52;102077;1317;61757;-23
2021/11/29 02:55:14;;;;;;;12.10;8.20;;;;;;;8.14;79.83;96531.29;102056;1313;62374;-23
2021/11/29 02:57:43;;;;;;;15.50;9.90;;;;;;;8.53;78.48;96530.47;102040;1313;74885;-23
2021/11/29 03:00:12;;;;;;;15.50;8.60;;;;;;;8.58;78.18;96529.85;101971;1313;76544;-23
2021/11/29 03:02:40;;;;;;;16.00;9.70;;;;;;;8.43;78.48;96515.48;101643;1317;74277;-23
2021/11/29 03:05:09;;;;;;;13.10;7.30;;;;;;;8.19;79.18;96506.34;101771;1314;61990;-23
2021/11/29 03:07:37;;;;;;;8.50;6.70;;;;;;;8.36;79.33;96503.48;102094;1314;61969;-23
2021/11/29 03:10:06;;;;;;;26.00;12.50;;;;;;;8.62;78.29;96499.05;102003;1317;74963;-23
2021/11/29 03:12:35;;;;;;;15.70;9.40;;;;;;;8.55;78.08;96498.72;101883;1313;76252;-23
2021/11/29 03:15:04;;;;;;;16.70;10.00;;;;;;;8.32;78.77;96500.27;101799;1314;74429;-23
2021/11/29 03:17:32;;;;;;;13.50;8.10;;;;;;;8.25;79.48;96495.13;101970;1317;62434;-23
2021/11/29 03:20:01;;;;;;;13.90;9.70;;;;;;;8.61;78.54;96495.46;102185;1313;61217;-23
2021/11/29 03:22:29;;;;;;;16.20;7.20;;;;;;;8.71;77.87;96501.25;102278;1313;75579;-23
2021/11/29 03:25:04;;;;;;;10.50;6.90;;;;;;;8.54;78.19;96488.54;102301;1317;74995;-23
2021/11/29 03:27:32;;;;;;;16.10;8.60;;;;;;;8.27;79.03;96472.98;101880;1317;72259;-23
2021/11/29 03:30:01;;;;;;;13.20;8.10;;;;;;;8.45;78.99;96464.71;102073;1314;61195;-23
2021/11/29 03:32:34;;;;;;;13.20;7.90;;;;;;;8.62;78.40;96453.84;102038;1313;61329;-23
2021/11/29 03:35:04;;;;;;;14.00;9.70;;;;;;;8.53;78.49;96456.85;101979;1313;76233;-23
2021/11/29 03:37:33;;;;;;;12.50;7.30;;;;;;;8.31;78.99;96450.55;101690;1314;73082;-23
2021/11/29 03:40:04;;;;;;;19.40;9.80;;;;;;;8.36;79.52;96452.73;101802;1314;74507;-23
2021/11/29 03:42:33;;;;;;;12.00;7.60;;;;;;;8.63;78.38;96452.21;102116;1314;62165;-23
2021/11/29 03:45:01;;;;;;;11.70;7.90;;;;;;;8.61;78.22;96446.60;102033;1317;61106;-23
2021/11/29 03:47:30;;;;;;;13.10;9.20;;;;;;;8.39;78.83;96449.02;102287;1313;74324;-23
2021/11/29 03:49:58;;;;;;;9.80;5.80;;;;;;;8.32;79.63;96447.85;102304;1317;75240;-23
2021/11/29 03:52:27;;;;;;;15.10;8.10;;;;;;;8.75;78.37;96449.99;102193;1314;74473;-23
2021/11/29 03:54:55;;;;;;;11.30;7.20;;;;;;;8.87;77.46;96456.20;101819;1313;61164;-23
2021/11/29 03:57:24;;;;;;;13.00;8.40;;;;;;;8.66;77.94;96454.11;102020;1313;61267;-23
2021/11/29 03:59:52;;;;;;;15.70;8.30;;;;;;;8.40;78.71;96456.19;101994;1317;75709;-23
2021/11/29 04:02:21;;;;;;;12.70;7.30;;;;;;;8.51;78.96;96459.48;101809;1319;75123;-23
2021/11/29 04:04:49;;;;;;;8.70;5.90;;;;;;;8.77;77.84;96462.17;101994;1320;72625;-23
2021/11/29 04:07:20;;;;;;;12.70;8.40;;;;;;;8.71;77.94;96461.64;102030;1313;61164;-23
2021/11/29 04:09:48;;;;;;;11.90;8.00;;;;;;;8.52;78.31;96458.46;101975;1313;61287;-23
2021/11/29 04:12:17;;;;;;;12.10;8.10;;;;;;;8.43;78.88;96454.60;102105;1314;75505;-23
2021/11/29 04:14:45;;;;;;;10.80;6.70;;;;;;;8.87;77.72;96448.26;101811;1314;76146;-23
2021/11/29 04:17:14;;;;;;;11.50;7.90;;;;;;;9.02;76.96;96439.21;102097;1314;72966;-23
2021/11/29 04:19:45;;;;;;;12.50;8.80;;;;;;;8.86;77.35;96430.71;101842;1313;61191;-23
2021/11/29 04:22:19;;;;;;;14.60;9.00;;;;;;;8.59;78.05;96424.77;102208;1316;61129;-23
2021/11/29 04:24:48;;;;;;;8.70;6.40;;;;;;;8.53;78.71;96419.61;102208;1313;75372;-23
2021/11/29 04:27:17;;;;;;;14.00;8.20;;;;;;;8.90;77.49;96420.19;102302;1317;76109;-23
2021/11/29 04:29:46;;;;;;;20.30;11.30;;;;;;;8.99;77.07;96428.47;102134;1313;72400;-23
2021/11/29 04:32:15;;;;;;;10.70;5.90;;;;;;;8.86;77.38;96426.24;101838;1313;61151;-23
2021/11/29 04:34:44;;;;;;;9.90;7.00;;;;;;;8.58;78.28;96411.40;101773;1313;62188;-23
2021/11/29 04:37:12;;;;;;;13.30;8.80;;;;;;;8.56;78.96;96404.54;102128;1314;75407;-23
2021/11/29 04:39:41;;;;;;;12.50;7.90;;;;;;;8.91;77.74;96406.98;102324;1313;76073;-23
2021/11/29 04:42:10;;;;;;;12.80;9.10;;;;;;;8.89;77.67;96410.70;102133;1314;74467;-23
2021/11/29 04:44:38;;;;;;;15.10;9.90;;;;;;;8.69;77.95;96420.25;102267;1313;61203;-23
2021/11/29 04:47:07;;;;;;;11.80;6.50;;;;;;;8.46;78.72;96415.75;102099;1313;62150;-22
2021/11/29 04:49:35;;;;;;;14.00;8.40;;;;;;;8.54;79.23;96414.83;102084;1314;75662;-23
2021/11/29 04:52:05;;;;;;;12.50;8.90;;;;;;;8.91;77.79;96407.14;102104;1319;74989;-23
2021/11/29 04:54:34;;;;;;;16.20;8.70;;;;;;;8.88;77.51;96403.11;102026;1313;72565;-23
2021/11/29 04:57:03;;;;;;;11.30;7.20;;;;;;;8.67;78.01;96393.46;102058;1313;61233;-22
2021/11/29 04:59:32;;;;;;;12.90;7.20;;;;;;;8.43;78.88;96382.91;101729;1313;62023;-22
2021/11/29 05:02:01;;;;;;;11.80;7.30;;;;;;;8.58;78.84;96375.99;102083;1313;75625;-22
2021/11/29 05:04:30;;;;;;;12.60;7.30;;;;;;;8.80;77.88;96373.15;101859;1316;72397;-23
2021/11/29 05:07:04;;;;;;;19.50;11.00;;;;;;;8.66;78.17;96365.70;102009;1313;74531;-22
2021/11/29 05:09:33;;;;;;;14.30;8.70;;;;;;;8.49;78.58;96365.44;102088;1314;61182;-23
2021/11/29 05:12:02;;;;;;;12.40;8.50;;;;;;;8.43;78.95;96366.27;101864;1314;62372;-23
2021/11/29 05:14:38;;;;;;;15.00;9.30;;;;;;;8.76;77.97;96368.90;101716;1313;75828;-23
2021/11/29 05:17:07;;;;;;;15.20;9.10;;;;;;;8.80;77.64;96373.79;101896;1313;75343;-22
2021/11/29 05:19:35;;;;;;;20.70;8.20;;;;;;;8.66;77.77;96375.36;101879;1320;74526;-22
2021/11/29 05:22:04;;;;;;;10.40;6.40;;;;;;;8.42;78.62;96367.05;101984;1313;61219;-23
2021/11/29 05:24:32;;;;;;;14.10;8.70;;;;;;;8.57;78.49;96370.00;102102;1316;61855;-22
2021/11/29 05:27:02;;;;;;;18.90;11.70;;;;;;;8.80;77.69;96369.36;102084;1313;74750;-22
2021/11/29 05:29:31;;;;;;;13.00;8.80;;;;;;;8.70;77.70;96372.73;101707;1316;76112;-23
2021/11/29 05:32:00;;;;;;;15.10;9.80;;;;;;;8.49;78.15;96373.67;102078;1316;73487;-23
2021/11/29 05:34:28;;;;;;;13.40;8.90;;;;;;;8.37;78.98;96367.94;102214;1313;62895;-22
2021/11/29 05:37:17;;;;;;;15.90;8.90;;;;;;;8.70;78.05;96362.88;102301;1313;61102;-23
2021/11/29 05:39:45;;;;;;;16.40;7.50;;;;;;;8.74;77.43;96360.30;102253;1316;74664;-23
2021/11/29 05:42:13;;;;;;;16.60;9.60;;;;;;;8.59;77.69;96355.79;102196;1313;76060;-23
2021/11/29 05:44:41;;;;;;;13.40;7.70;;;;;;;8.39;78.51;96342.84;101904;1313;74493;-22
2021/11/29 05:47:10;;;;;;;12.40;7.70;;;;;;;8.61;78.36;96341.35;101626;1313;61240;-23
2021/11/29 05:49:38;;;;;;;15.40;8.00;;;;;;;8.88;77.15;96340.19;101863;1313;63266;-23
2021/11/29 05:52:07;;;;;;;18.20;10.20;;;;;;;8.80;77.25;96335.00;101902;1313;75594;-23
2021/11/29 05:54:36;;;;;;;20.00;9.20;;;;;;;8.64;77.56;96335.70;101725;1316;76089;-22
2021/11/29 05:57:04;;;;;;;14.90;7.70;;;;;;;8.51;78.35;96342.85;101679;1317;74408;-23
2021/11/29 05:59:33;;;;;;;11.80;7.00;;;;;;;8.88;77.43;96351.54;101983;1313;61237;-23
2021/11/29 06:02:01;;;;;;;18.00;10.30;;;;;;;9.01;76.61;96351.05;101832;1314;61126;-23
2021/11/29 06:04:31;;;;;;;14.00;9.50;;;;;;;8.84;76.89;96351.04;102022;1313;74516;-23
2021/11/29 06:06:59;;;;;;;15.90;9.40;;;;;;;8.59;77.69;96351.48;101701;1314;76140;-23
2021/11/29 06:09:28;;;;;;;14.90;8.40;;;;;;;8.50;78.34;96355.72;101928;1314;74648;-22
2021/11/29 06:11:56;;;;;;;7.20;5.00;;;;;;;8.94;77.39;96348.14;101887;1313;61140;-23
2021/11/29 06:14:26;;;;;;;14.30;8.50;;;;;;;9.03;76.57;96341.17;101900;1313;61274;-22
2021/11/29 06:17:14;;;;;;;18.00;10.00;;;;;;;8.87;77.00;96339.70;101673;1313;76813;-23
2021/11/29 06:19:44;;;;;;;17.20;10.30;;;;;;;8.66;77.64;96335.33;102082;1313;76076;-22
2021/11/29 06:22:13;;;;;;;13.00;6.80;;;;;;;8.62;78.17;96322.58;102056;1316;73497;-22
2021/11/29 06:24:41;;;;;;;14.60;7.30;;;;;;;8.94;77.17;96308.97;101991;1313;61234;-22
2021/11/29 06:27:10;;;;;;;13.10;8.30;;;;;;;9.00;76.73;96300.98;102013;1313;61252;-22
2021/11/29 06:29:38;;;;;;;19.80;10.80;;;;;;;8.85;77.05;96303.30;101817;1314;74441;-22
2021/11/29 06:32:07;;;;;;;10.00;7.00;;;;;;;8.63;77.79;96302.40;101977;1313;76004;-23
2021/11/29 06:34:36;;;;;;;15.90;8.90;;;;;;;8.79;77.63;96293.43;101989;1313;73504;-23
2021/11/29 06:37:04;;;;;;;14.50;10.00;;;;;;;9.10;76.34;96286.05;102075;1316;61201;-22
2021/11/29 06:39:34;;;;;;;17.90;9.40;;;;;;;9.06;76.16;96287.57;102030;1314;61328;-23
2021/11/29 06:42:05;;;;;;;12.80;8.40;;;;;;;8.85;76.81;96289.54;102082;1319;75769;-23
2021/11/29 06:44:34;;;;;;;11.80;7.50;;;;;;;8.62;77.60;96279.92;102110;1314;76100;-22
2021/11/29 06:47:03;;;;;;;16.10;9.50;;;;;;;8.87;77.25;96266.16;102063;1316;73160;-23
2021/11/29 06:49:32;;;;;;;20.10;10.60;;;;;;;9.20;75.80;96268.56;102034;1316;61261;-22
2021/11/29 06:52:04;;;;;;;16.80;9.90;;;;;;;9.12;75.65;96267.30;102074;1313;61183;-23
2021/11/29 06:54:37;;;;;;;15.40;10.50;;;;;;;8.90;76.25;96261.28;101806;1313;74600;-23
2021/11/29 06:57:05;;;;;;;12.70;7.70;;;;;;;8.63;77.12;96270.91;101759;1316;75643;-23
2021/11/29 06:59:34;;;;;;;14.30;9.00;;;;;;;8.82;77.21;96278.48;101789;1313;74275;-22
2021/11/29 07:02:05;;;;;;;15.00;10.50;;;;;;;9.14;75.92;96279.67;101975;1314;62240;-23
2021/11/29 07:04:35;;;;;;;16.90;9.90;;;;;;;9.12;75.61;96279.25;102086;1313;62007;-23
2021/11/29 07:07:04;;;;;;;13.40;9.00;;;;;;;8.92;76.03;96278.48;102036;1313;74951;-23
2021/11/29 07:09:53;;;;;;;14.60;7.60;;;;;;;8.65;76.86;96273.26;101726;1320;77307;-23
2021/11/29 07:12:21;;;;;;;13.70;8.30;;;;;;;8.89;76.60;96282.43;102038;1313;74391;-23
2021/11/29 07:14:50;;;;;;;16.90;9.60;;;;;;;9.15;75.23;96284.23;102062;1313;61183;-22
2021/11/29 07:17:20;;;;;;;15.40;9.30;;;;;;;9.06;75.09;96280.95;101752;1314;280044;-23
2021/11/29 07:19:52;;;;;;;18.30;11.70;;;;;;;8.86;75.48;96281.44;101797;1318;73624;-23
2021/11/29 07:22:23;;;;;;;17.20;9.60;;;;;;;8.65;76.14;96284.88;101790;1313;76509;-23
2021/11/29 07:24:53;;;;;;;10.80;6.70;;;;;;;8.84;75.80;96302.45;101965;1319;73267;-22
2021/11/29 07:27:22;;;;;;;15.10;11.50;;;;;;;9.01;75.03;96308.48;101666;1313;61204;-22
2021/11/29 07:29:54;;;;;;;16.40;11.10;;;;;;;8.94;75.15;96300.94;101898;1314;61153;-23
2021/11/29 07:32:23;;;;;;;13.10;8.90;;;;;;;8.78;75.75;96289.66;102150;1319;75429;-22
2021/11/29 07:34:52;;;;;;;13.60;7.80;;;;;;;8.66;76.48;96283.56;102020;1313;74883;-22
2021/11/29 07:37:20;;;;;;;12.00;7.60;;;;;;;9.03;75.43;96273.13;102095;1313;73200;-22
2021/11/29 07:39:49;;;;;;;14.80;9.50;;;;;;;9.23;74.56;96269.58;101757;1317;61194;-22
2021/11/29 07:42:17;;;;;;;16.30;9.80;;;;;;;9.12;74.96;96256.52;102090;1319;61202;-23
2021/11/29 07:44:46;;;;;;;13.40;8.70;;;;;;;8.95;75.39;96261.47;102189;1314;75449;-23
2021/11/29 07:47:14;;;;;;;16.00;10.00;;;;;;;8.80;76.06;96251.16;101986;1316;75261;-22
2021/11/29 07:49:43;;;;;;;13.20;9.10;;;;;;;9.10;75.19;96240.21;102090;1314;74349;-23
2021/11/29 07:52:14;;;;;;;19.30;11.70;;;;;;;9.23;74.35;96232.88;102052;1313;61186;-22
2021/11/29 07:54:44;;;;;;;15.90;11.30;;;;;;;9.18;74.54;96220.20;102056;1313;61271;-23
2021/11/29 07:57:13;;;;;;;11.30;8.10;;;;;;;9.06;75.10;96207.10;101724;1317;75580;-23
2021/11/29 07:59:42;;;;;;;13.50;8.50;;;;;;;8.99;75.56;96203.05;102072;1313;75036;-23
2021/11/29 08:02:19;;;;;;;12.60;7.90;;;;;;;9.49;74.53;96193.80;102208;1314;72979;-23
2021/11/29 08:04:47;;;;;;;13.70;8.90;;;;;;;9.86;73.07;96192.73;102304;1313;61169;-22
2021/11/29 08:07:17;;;;;;;18.90;9.70;;;;;;;9.84;72.76;96194.27;102241;1313;61199;-23
2021/11/29 08:09:47;;;;;;;12.80;8.90;;;;;;;9.72;73.24;96202.71;102146;1317;74314;-22
2021/11/29 08:12:16;;;;;;;17.80;11.20;;;;;;;9.53;73.87;96198.83;102153;1314;73788;-23
2021/11/29 08:14:47;;;;;;;14.00;9.10;;;;;;;9.40;74.22;96191.54;102133;1316;73180;-22
2021/11/29 08:17:22;;;;;;;19.30;10.70;;;;;;;9.72;73.61;96192.17;102279;1314;61159;-22
2021/11/29 08:19:56;;;;;;;14.70;7.30;;;;;;;9.92;72.99;96189.82;102251;1314;61593;-23
2021/11/29 08:22:25;;;;;;;13.00;7.50;;;;;;;9.79;72.63;96198.25;102311;1314;74552;-23
2021/11/29 08:24:53;;;;;;;16.70;10.90;;;;;;;9.56;73.14;96213.33;102263;1313;76254;-23
2021/11/29 08:27:21;;;;;;;18.30;11.30;;;;;;;9.30;74.00;96213.23;102289;1317;72620;-23
2021/11/29 08:29:50;;;;;;;10.90;8.00;;;;;;;9.22;74.79;96220.91;101985;1316;62809;-23
2021/11/29 08:32:18;;;;;;;15.40;11.20;;;;;;;9.52;73.52;96220.89;102252;1314;61469;-24
2021/11/29 08:34:47;;;;;;;15.60;10.30;;;;;;;9.56;73.26;96217.27;102286;1313;75466;-23
2021/11/29 08:37:15;;;;;;;15.50;9.00;;;;;;;9.44;73.26;96220.34;102301;1313;76192;-23
2021/11/29 08:39:44;;;;;;;15.30;8.70;;;;;;;9.17;74.19;96221.90;102040;1314;73540;-24
2021/11/29 08:42:12;;;;;;;15.10;9.40;;;;;;;8.93;75.06;96219.99;102102;1314;61033;-24
2021/11/29 08:44:41;;;;;;;14.30;9.20;;;;;;;9.21;74.88;96205.96;102056;1313;61232;-24
2021/11/29 08:47:09;;;;;;;10.10;7.50;;;;;;;9.58;73.31;96196.31;102169;1313;75517;-24
2021/11/29 08:49:39;;;;;;;16.90;8.50;;;;;;;9.56;73.35;96185.17;102225;1313;75909;-24
2021/11/29 08:52:07;;;;;;;13.00;9.40;;;;;;;9.38;73.73;96172.34;102272;1320;73419;-24
2021/11/29 08:54:39;;;;;;;12.00;6.30;;;;;;;9.12;74.70;96170.58;102277;1313;61220;-24
2021/11/29 08:57:08;;;;;;;8.30;6.20;;;;;;;9.24;74.65;96186.41;101878;1316;62000;-23
2021/11/29 08:59:37;;;;;;;12.70;8.00;;;;;;;9.58;73.59;96206.98;101851;1316;74725;-24
2021/11/29 09:02:05;;;;;;;11.00;8.30;;;;;;;9.64;72.85;96212.91;101929;1313;76237;-24
2021/11/29 09:04:34;;;;;;;11.20;7.40;;;;;;;9.46;73.12;96211.77;102161;1313;74501;-24
2021/11/29 09:07:03;;;;;;;13.30;9.50;;;;;;;9.21;74.05;96213.64;102244;1313;61669;-24
2021/11/29 09:09:32;;;;;;;10.60;7.20;;;;;;;9.08;74.65;96223.48;102177;1313;62045;-24
2021/11/29 09:12:01;;;;;;;12.70;7.60;;;;;;;9.29;74.10;96211.75;102320;1313;74752;-24
2021/11/29 09:14:29;;;;;;;10.10;8.00;;;;;;;9.34;73.41;96211.90;101942;1316;75843;-24
2021/11/29 09:17:17;;;;;;;17.10;9.10;;;;;;;9.20;73.50;96211.23;102075;1316;76018;-24
2021/11/29 09:19:46;;;;;;;16.50;9.60;;;;;;;8.85;74.74;96210.77;102245;1316;61322;-23
2021/11/29 09:22:15;;;;;;;18.20;11.10;;;;;;;8.60;75.59;96208.83;102275;1314;61317;-24
2021/11/29 09:24:46;;;;;;;16.20;10.20;;;;;;;8.77;75.30;96208.38;102315;1314;75694;-24
2021/11/29 09:27:15;;;;;;;11.60;7.00;;;;;;;9.08;74.25;96212.88;102308;1313;76030;-24
2021/11/29 09:29:48;;;;;;;15.20;10.30;;;;;;;8.97;74.15;96217.52;102268;1313;73926;-23
2021/11/29 09:32:17;;;;;;;13.50;7.10;;;;;;;8.82;74.39;96214.25;102246;1313;61304;-23
2021/11/29 09:34:47;;;;;;;10.60;7.40;;;;;;;8.47;75.58;96210.49;102268;1313;61134;-24
2021/11/29 09:37:18;;;;;;;14.90;9.20;;;;;;;8.63;75.52;96210.13;102227;1314;75456;-23
2021/11/29 09:39:51;;;;;;;12.90;7.80;;;;;;;8.73;74.94;96207.50;101813;1316;76317;-24
2021/11/29 09:42:19;;;;;;;17.80;11.00;;;;;;;8.65;75.13;96211.68;101912;1314;73152;-24
2021/11/29 09:44:52;;;;;;;18.80;10.00;;;;;;;8.51;75.80;96208.23;102036;1313;61241;-23
2021/11/29 09:47:21;;;;;;;;;;;;;;;8.44;76.18;96202.90;102111;1314;62118;-24
2021/11/29 09:49:54;;;;;;;16.40;9.30;;;;;;;8.61;75.81;96195.44;102077;1313;74219;-23
2021/11/29 09:52:22;;;;;;;12.70;7.50;;;;;;;8.86;75.03;96181.72;102123;1313;75101;-24
2021/11/29 09:54:51;;;;;;;9.90;6.60;;;;;;;8.67;75.34;96177.55;101918;1316;72991;-24
2021/11/29 09:57:21;;;;;;;9.50;6.40;;;;;;;8.42;76.06;96168.83;102098;1313;61924;-23
2021/11/29 09:59:50;;;;;;;11.50;7.40;;;;;;;8.35;76.38;96160.76;101741;1319;61129;-23
2021/11/29 10:02:19;;;;;;;13.50;8.50;;;;;;;8.76;75.32;96159.13;102114;1320;73724;-23
2021/11/29 10:04:48;;;;;;;11.90;6.70;;;;;;;8.94;74.42;96151.61;102040;1313;76030;-23
2021/11/29 10:07:30;;;;;;;11.40;7.50;;;;;;;8.84;74.55;96140.70;101875;1314;72943;-22
2021/11/29 10:10:14;;;;;;;12.60;8.10;;;;;;;8.62;75.17;96138.84;101769;1317;61240;-23
2021/11/29 10:12:45;;;;;;;8.80;5.20;;;;;;;8.46;75.91;96133.91;101850;1313;61169;-23
2021/11/29 10:15:32;;;;;;;13.40;7.70;;;;;;;8.87;74.85;96124.88;101745;1316;75640;-22
2021/11/29 10:18:15;;;;;;;13.70;8.80;;;;;;;9.06;73.90;96118.97;101715;1313;76219;-23
2021/11/29 10:21:01;;;;;;;12.40;8.40;;;;;;;8.96;74.30;96116.26;102064;1316;74503;-23
2021/11/29 10:23:31;;;;;;;10.10;6.30;;;;;;;8.72;75.26;96115.13;101916;1317;61199;-22
2021/11/29 10:26:11;;;;;;;13.80;8.00;;;;;;;8.41;75.90;96113.48;102090;1317;61718;-22
2021/11/29 10:28:41;;;;;;;12.60;8.50;;;;;;;8.64;75.60;96111.69;101736;1317;75649;-22
2021/11/29 10:31:29;;;;;;;12.40;8.10;;;;;;;8.94;74.31;96109.65;101877;1316;76665;-23
2021/11/29 10:33:59;;;;;;;16.20;10.10;;;;;;;8.85;74.50;96108.89;101764;1319;73091;-23
2021/11/29 10:36:31;;;;;;;14.20;10.20;;;;;;;8.66;75.20;96102.38;101752;1313;61270;-22
2021/11/29 10:39:27;;;;;;;15.40;9.90;;;;;;;8.56;75.27;96096.42;101737;1317;61187;-22
2021/11/29 10:41:58;;;;;;;11.50;7.70;;;;;;;8.45;76.10;96088.15;102016;1320;74583;-22
2021/11/29 10:44:35;;;;;;;15.80;9.40;;;;;;;8.99;74.92;96080.77;101762;1316;76169;-23
2021/11/29 10:47:14;;;;;;;16.80;8.60;;;;;;;9.32;73.49;96082.96;101711;1316;73619;-23
2021/11/29 10:49:45;;;;;;;19.20;9.20;;;;;;;9.11;73.44;96077.52;102072;1316;61127;-23
2021/11/29 10:52:17;;;;;;;14.20;9.60;;;;;;;8.82;74.24;96074.30;101709;1316;61646;-22
2021/11/29 10:54:46;;;;;;;17.90;11.90;;;;;;;8.66;74.60;96070.52;101722;1316;75583;-23
2021/11/29 10:57:15;;;;;;;13.90;9.10;;;;;;;8.57;75.60;96072.41;102158;1314;76224;-23
2021/11/29 10:59:45;;;;;;;13.00;9.50;;;;;;;9.11;74.35;96074.05;101728;1316;73447;-23
2021/11/29 11:02:22;;;;;;;14.20;9.50;;;;;;;9.33;73.16;96058.57;101734;1316;62173;-23
2021/11/29 11:05:08;;;;;;;18.50;11.10;;;;;;;9.09;73.50;96047.34;101723;1316;61826;-23
2021/11/29 11:07:37;;;;;;;17.70;11.30;;;;;;;8.79;74.45;96035.78;102015;1316;74819;-23
2021/11/29 11:10:09;;;;;;;16.30;10.70;;;;;;;8.64;74.78;96026.17;101670;1313;76642;-22
2021/11/29 11:12:39;;;;;;;13.40;8.10;;;;;;;8.58;75.10;96025.09;101798;1317;74257;-22
2021/11/29 11:15:12;;;;;;;15.30;8.40;;;;;;;9.12;74.43;96020.64;101929;1313;61204;-23
2021/11/29 11:18:00;;;;;;;13.50;8.90;;;;;;;9.68;72.67;96014.98;101771;1316;61166;-23
2021/11/29 11:20:31;;;;;;;15.90;10.00;;;;;;;9.63;71.81;96005.98;102055;1313;75450;-22
2021/11/29 11:23:00;;;;;;;11.90;9.00;;;;;;;9.46;72.45;95990.31;102030;1313;75037;-23
2021/11/29 11:25:34;;;;;;;17.20;9.90;;;;;;;9.21;73.30;95976.33;102093;1313;74285;-23
2021/11/29 11:28:08;;;;;;;15.60;9.90;;;;;;;8.93;74.00;95970.89;101738;1314;62001;-22
2021/11/29 11:30:42;;;;;;;12.70;8.30;;;;;;;8.66;75.13;95972.77;102141;1314;62123;-23
2021/11/29 11:33:16;;;;;;;14.60;10.00;;;;;;;8.95;74.31;95983.60;101871;1316;74386;-22
2021/11/29 11:35:46;;;;;;;13.20;9.40;;;;;;;9.26;73.28;95992.30;101760;1316;75464;-23
2021/11/29 11:38:23;;;;;;;15.30;9.50;;;;;;;9.23;73.32;95998.67;101692;1316;74179;-22
2021/11/29 11:40:56;;;;;;;15.00;10.50;;;;;;;8.91;73.99;95998.48;101625;1316;61939;-22